createdAt,value
2019-03-10T00:00:52.718Z,0.40
2019-03-10T00:02:07.716Z,0.50
2019-03-10T00:03:20.941Z,0.60
2019-03-10T00:04:34.170Z,0.50
2019-03-10T00:05:47.399Z,0.65
2019-03-10T00:07:01.893Z,0.57
2019-03-10T00:08:15.129Z,0.70
2019-03-10T00:09:28.356Z,0.75
2019-03-10T00:10:42.311Z,0.70
2019-03-10T00:11:55.529Z,0.88
2019-03-10T00:13:08.842Z,0.80
2019-03-10T00:14:22.114Z,0.70
2019-03-10T00:15:35.346Z,0.70
2019-03-10T00:16:50.952Z,0.80
2019-03-10T00:18:04.176Z,0.80
2019-03-10T00:19:17.402Z,0.70
2019-03-10T00:20:30.628Z,0.78
2019-03-10T00:21:43.847Z,0.57
2019-03-10T00:22:57.077Z,0.60
2019-03-10T00:24:10.310Z,0.80
2019-03-10T00:25:23.538Z,0.80
2019-03-10T00:26:36.775Z,0.70
2019-03-10T00:27:49.999Z,0.68
2019-03-10T00:29:03.234Z,0.40
2019-03-10T00:30:18.201Z,0.70
2019-03-10T00:31:31.433Z,0.57
2019-03-10T00:32:44.934Z,0.60
2019-03-10T00:33:58.453Z,0.95
2019-03-10T00:35:11.686Z,0.75
2019-03-10T00:36:24.929Z,0.37
2019-03-10T00:37:38.187Z,1.07
2019-03-10T00:39:13.560Z,0.85
2019-03-10T00:41:02.766Z,0.70
2019-03-10T00:42:33.911Z,0.80
2019-03-10T00:44:01.754Z,0.65
2019-03-10T00:45:46.727Z,0.60
2019-03-10T00:47:19.251Z,0.80
2019-03-10T00:48:54.793Z,0.80
2019-03-10T00:50:13.982Z,0.65
2019-03-10T00:51:42.104Z,0.80
2019-03-10T00:53:01.185Z,0.60
2019-03-10T00:54:14.654Z,0.70
2019-03-10T00:55:27.874Z,0.70
2019-03-10T00:56:41.100Z,0.50
2019-03-10T00:57:54.321Z,0.60
2019-03-10T00:59:07.546Z,1.05
2019-03-10T01:00:20.783Z,0.60
2019-03-10T01:01:34.005Z,0.70
2019-03-10T01:02:47.237Z,0.60
2019-03-10T01:04:00.934Z,0.80
2019-03-10T01:05:14.881Z,0.78
2019-03-10T01:06:28.118Z,0.70
2019-03-10T01:07:41.822Z,0.70
2019-03-10T01:08:55.049Z,0.65
2019-03-10T01:10:09.014Z,0.57
2019-03-10T01:11:22.250Z,0.82
2019-03-10T01:12:35.552Z,0.62
2019-03-10T01:13:51.833Z,0.60
2019-03-10T01:15:07.870Z,0.68
2019-03-10T01:16:21.100Z,0.60
2019-03-10T01:17:34.324Z,0.65
2019-03-10T01:18:47.614Z,0.75
2019-03-10T01:20:00.849Z,0.90
2019-03-10T01:21:14.077Z,0.90
2019-03-10T01:22:27.321Z,0.82
2019-03-10T01:23:42.740Z,0.68
2019-03-10T01:24:55.476Z,0.80
2019-03-10T01:26:08.705Z,0.72
2019-03-10T01:27:21.931Z,0.62
2019-03-10T01:28:35.148Z,0.60
2019-03-10T01:29:48.370Z,0.62
2019-03-10T01:31:25.299Z,0.70
2019-03-10T01:32:53.807Z,0.68
2019-03-10T01:34:28.085Z,0.70
2019-03-10T01:35:42.681Z,0.70
2019-03-10T01:36:57.314Z,0.98
2019-03-10T01:38:11.994Z,0.78
2019-03-10T01:39:25.225Z,0.90
2019-03-10T01:40:38.453Z,0.80
2019-03-10T01:41:51.683Z,0.60
2019-03-10T01:43:04.958Z,0.70
2019-03-10T01:44:18.221Z,0.70
2019-03-10T01:45:31.453Z,0.70
2019-03-10T01:46:44.682Z,0.93
2019-03-10T01:47:59.337Z,0.80
2019-03-10T01:49:12.712Z,0.70
2019-03-10T01:50:36.253Z,0.70
2019-03-10T01:51:50.661Z,0.70
2019-03-10T01:53:03.881Z,0.70
2019-03-10T01:54:17.164Z,0.62
2019-03-10T01:55:30.502Z,0.60
2019-03-10T01:56:43.966Z,0.72
2019-03-10T01:57:58.860Z,0.90
2019-03-10T01:59:12.129Z,0.60
2019-03-10T02:00:25.375Z,0.50
2019-03-10T02:01:39.307Z,0.70
2019-03-10T02:02:52.584Z,0.70
2019-03-10T02:04:05.860Z,0.65
2019-03-10T02:05:19.089Z,0.85
2019-03-10T02:06:32.324Z,0.85
2019-03-10T02:07:45.549Z,0.80
2019-03-10T02:08:58.783Z,1.02
2019-03-10T02:10:12.445Z,0.60
2019-03-10T02:11:25.910Z,0.70
2019-03-10T02:12:39.154Z,0.78
2019-03-10T02:13:52.374Z,0.50
2019-03-10T02:15:09.095Z,0.60
2019-03-10T02:16:22.333Z,0.93
2019-03-10T02:17:35.566Z,0.65
2019-03-10T02:18:49.939Z,0.98
2019-03-10T02:20:03.890Z,0.80
2019-03-10T02:21:17.112Z,0.68
2019-03-10T02:22:30.341Z,0.60
2019-03-10T02:23:43.579Z,0.70
2019-03-10T02:24:57.281Z,0.80
2019-03-10T02:26:10.518Z,0.57
2019-03-10T02:27:23.770Z,0.68
2019-03-10T02:28:37.058Z,0.75
2019-03-10T02:29:50.560Z,0.72
2019-03-10T02:31:03.848Z,0.60
2019-03-10T02:32:17.074Z,0.75
2019-03-10T02:33:30.307Z,0.60
2019-03-10T02:34:43.775Z,0.80
2019-03-10T02:35:57.018Z,0.80
2019-03-10T02:37:10.238Z,0.75
2019-03-10T02:38:23.458Z,0.72
2019-03-10T02:39:36.681Z,0.70
2019-03-10T02:40:49.937Z,0.78
2019-03-10T02:42:04.425Z,1.10
2019-03-10T02:43:19.027Z,0.78
2019-03-10T02:44:32.246Z,0.60
2019-03-10T02:45:45.480Z,0.60
2019-03-10T02:46:58.958Z,0.70
2019-03-10T02:48:12.427Z,0.62
2019-03-10T02:49:25.650Z,0.60
2019-03-10T02:50:38.863Z,0.75
2019-03-10T02:51:52.110Z,0.70
2019-03-10T02:53:05.327Z,0.90
2019-03-10T02:54:18.550Z,0.70
2019-03-10T02:55:31.834Z,0.62
2019-03-10T02:56:45.060Z,0.60
2019-03-10T02:57:58.299Z,0.88
2019-03-10T02:59:11.523Z,0.60
2019-03-10T03:00:24.748Z,0.60
2019-03-10T03:01:37.965Z,0.70
2019-03-10T03:02:53.270Z,0.75
2019-03-10T03:04:06.490Z,0.65
2019-03-10T03:05:19.717Z,0.80
2019-03-10T03:06:33.190Z,0.65
2019-03-10T03:07:46.418Z,0.75
2019-03-10T03:08:59.718Z,0.60
2019-03-10T03:10:13.687Z,0.70
2019-03-10T03:11:26.911Z,0.70
2019-03-10T03:12:40.589Z,1.55
2019-03-10T03:13:53.805Z,0.60
2019-03-10T03:15:08.878Z,0.55
2019-03-10T03:16:22.105Z,0.75
2019-03-10T03:17:35.338Z,0.62
2019-03-10T03:18:49.296Z,0.60
2019-03-10T03:20:02.532Z,0.70
2019-03-10T03:21:15.769Z,0.53
2019-03-10T03:22:29.704Z,0.40
2019-03-10T03:23:42.932Z,0.57
2019-03-10T03:24:56.154Z,0.60
2019-03-10T03:26:09.393Z,0.50
2019-03-10T03:27:22.710Z,0.62
2019-03-10T03:28:35.940Z,0.55
2019-03-10T03:29:49.160Z,0.40
2019-03-10T03:31:02.400Z,0.37
2019-03-10T03:32:15.656Z,0.40
2019-03-10T03:33:28.887Z,0.40
2019-03-10T03:34:42.198Z,0.62
2019-03-10T03:35:58.602Z,0.20
2019-03-10T03:37:12.365Z,0.33
2019-03-10T03:38:34.438Z,0.50
2019-03-10T03:39:47.675Z,0.40
2019-03-10T03:41:10.306Z,0.30
2019-03-10T03:42:23.539Z,0.40
2019-03-10T03:43:36.796Z,0.50
2019-03-10T03:44:50.297Z,0.40
2019-03-10T03:46:04.494Z,0.60
2019-03-10T03:47:17.730Z,0.50
2019-03-10T03:48:30.969Z,0.53
2019-03-10T03:49:44.202Z,0.50
2019-03-10T03:50:57.428Z,0.40
2019-03-10T03:52:12.613Z,0.30
2019-03-10T03:53:25.835Z,0.40
2019-03-10T03:54:39.066Z,0.40
2019-03-10T03:55:52.292Z,0.33
2019-03-10T03:57:05.511Z,0.57
2019-03-10T03:58:20.368Z,0.50
2019-03-10T03:59:33.597Z,0.60
2019-03-10T04:00:48.475Z,0.47
2019-03-10T04:02:03.329Z,0.40
2019-03-10T04:03:16.542Z,0.30
2019-03-10T04:04:29.762Z,0.65
2019-03-10T04:05:42.990Z,0.40
2019-03-10T04:06:56.193Z,0.40
2019-03-10T04:08:09.410Z,0.30
2019-03-10T04:09:22.638Z,0.30
2019-03-10T04:10:35.860Z,0.42
2019-03-10T04:11:49.111Z,0.50
2019-03-10T04:13:02.323Z,0.40
2019-03-10T04:14:15.546Z,0.30
2019-03-10T04:15:28.781Z,0.40
2019-03-10T04:16:42.732Z,0.30
2019-03-10T04:17:55.946Z,0.42
2019-03-10T04:19:09.170Z,0.47
2019-03-10T04:20:23.482Z,0.55
2019-03-10T04:21:36.709Z,0.37
2019-03-10T04:22:49.952Z,0.30
2019-03-10T04:24:03.238Z,0.33
2019-03-10T04:25:16.448Z,0.40
2019-03-10T04:26:29.674Z,0.50
2019-03-10T04:27:42.906Z,0.30
2019-03-10T04:28:56.121Z,0.62
2019-03-10T04:30:11.481Z,0.35
2019-03-10T04:31:24.731Z,0.40
2019-03-10T04:32:37.946Z,0.50
2019-03-10T04:33:51.156Z,0.40
2019-03-10T04:35:04.825Z,0.47
2019-03-10T04:36:18.060Z,0.45
2019-03-10T04:37:31.287Z,0.50
2019-03-10T04:38:44.502Z,0.40
2019-03-10T04:39:57.720Z,0.40
2019-03-10T04:41:10.961Z,0.53
2019-03-10T04:42:24.233Z,0.60
2019-03-10T04:43:37.459Z,0.50
2019-03-10T04:44:50.679Z,0.85
2019-03-10T04:46:03.908Z,0.45
2019-03-10T04:47:17.121Z,0.75
2019-03-10T04:48:30.354Z,0.60
2019-03-10T04:49:43.573Z,0.50
2019-03-10T04:50:56.791Z,0.60
2019-03-10T04:52:10.007Z,0.60
2019-03-10T04:53:23.244Z,0.57
2019-03-10T04:54:40.857Z,0.60
2019-03-10T04:55:58.677Z,0.40
2019-03-10T04:57:13.525Z,0.60
2019-03-10T04:58:26.745Z,0.70
2019-03-10T04:59:39.977Z,0.60
2019-03-10T05:00:54.848Z,0.70
2019-03-10T05:02:08.068Z,0.65
2019-03-10T05:03:21.296Z,0.70
2019-03-10T05:04:34.530Z,0.33
2019-03-10T05:05:47.740Z,0.60
2019-03-10T05:07:00.958Z,0.80
2019-03-10T05:08:14.171Z,0.80
2019-03-10T05:09:28.645Z,0.75
2019-03-10T05:10:41.873Z,1.02
2019-03-10T05:11:55.085Z,0.75
2019-03-10T05:13:08.306Z,0.60
2019-03-10T05:14:21.519Z,0.40
2019-03-10T05:15:34.744Z,0.80
2019-03-10T05:16:47.978Z,0.62
2019-03-10T05:18:01.189Z,0.65
2019-03-10T05:19:14.409Z,0.60
2019-03-10T05:20:27.620Z,0.90
2019-03-10T05:21:40.857Z,0.62
2019-03-10T05:23:13.574Z,0.78
2019-03-10T05:24:26.789Z,0.80
2019-03-10T05:25:40.010Z,0.60
2019-03-10T05:26:53.242Z,0.70
2019-03-10T05:28:06.465Z,0.78
2019-03-10T05:29:19.677Z,0.80
2019-03-10T05:30:32.893Z,0.93
2019-03-10T05:31:46.113Z,0.72
2019-03-10T05:32:59.342Z,0.93
2019-03-10T05:34:12.571Z,1.27
2019-03-10T05:35:25.785Z,1.60
2019-03-10T05:36:39.008Z,1.07
2019-03-10T05:37:52.263Z,0.93
2019-03-10T05:39:06.150Z,1.20
2019-03-10T05:40:19.363Z,1.12
2019-03-10T05:41:32.581Z,0.85
2019-03-10T05:42:45.802Z,0.98
2019-03-10T05:43:59.030Z,0.88
2019-03-10T05:45:12.254Z,0.80
2019-03-10T05:46:25.473Z,0.88
2019-03-10T05:47:38.692Z,0.85
2019-03-10T05:48:51.926Z,0.85
2019-03-10T05:50:06.017Z,1.00
2019-03-10T05:51:20.868Z,0.90
2019-03-10T05:52:34.078Z,1.07
2019-03-10T05:53:47.301Z,1.00
2019-03-10T05:55:00.525Z,1.02
2019-03-10T05:56:13.742Z,1.12
2019-03-10T05:57:26.961Z,0.95
2019-03-10T05:58:40.184Z,0.93
2019-03-10T05:59:53.483Z,0.80
2019-03-10T06:01:06.705Z,0.90
2019-03-10T06:02:19.923Z,0.98
2019-03-10T06:03:33.132Z,0.80
2019-03-10T06:04:46.353Z,1.05
2019-03-10T06:06:01.212Z,1.20
2019-03-10T06:07:16.057Z,1.22
2019-03-10T06:08:29.279Z,1.60
2019-03-10T06:09:42.484Z,1.40
2019-03-10T06:10:55.709Z,1.15
2019-03-10T06:12:08.934Z,1.10
2019-03-10T06:13:22.174Z,1.35
2019-03-10T06:14:35.392Z,1.27
2019-03-10T06:15:48.608Z,1.10
2019-03-10T06:17:01.852Z,1.12
2019-03-10T06:18:15.061Z,1.20
2019-03-10T06:19:29.917Z,1.20
2019-03-10T06:20:44.768Z,1.20
2019-03-10T06:21:57.993Z,1.30
2019-03-10T06:23:11.226Z,1.60
2019-03-10T06:24:24.446Z,1.10
2019-03-10T06:25:37.713Z,1.02
2019-03-10T06:26:50.958Z,1.05
2019-03-10T06:28:04.200Z,1.15
2019-03-10T06:29:17.417Z,1.27
2019-03-10T06:30:30.624Z,1.22
2019-03-10T06:31:43.849Z,1.32
2019-03-10T06:32:58.326Z,1.17
2019-03-10T06:34:11.563Z,1.62
2019-03-10T06:35:24.781Z,1.35
2019-03-10T06:36:38.231Z,1.30
2019-03-10T06:37:51.453Z,1.00
2019-03-10T06:39:05.710Z,1.77
2019-03-10T06:40:18.943Z,1.30
2019-03-10T06:41:32.164Z,1.40
2019-03-10T06:42:45.379Z,1.27
2019-03-10T06:43:58.602Z,1.00
2019-03-10T06:45:11.822Z,1.37
2019-03-10T06:46:26.216Z,1.15
2019-03-10T06:47:39.437Z,1.10
2019-03-10T06:48:52.662Z,0.80
2019-03-10T06:50:08.797Z,1.20
2019-03-10T06:51:22.019Z,1.00
2019-03-10T06:52:35.240Z,1.12
2019-03-10T06:53:48.457Z,1.05
2019-03-10T06:55:01.680Z,1.10
2019-03-10T06:56:14.896Z,0.90
2019-03-10T06:57:28.129Z,0.70
2019-03-10T06:58:41.357Z,1.20
2019-03-10T06:59:54.579Z,1.30
2019-03-10T07:01:07.811Z,0.80
2019-03-10T07:02:21.046Z,1.00
2019-03-10T07:03:34.263Z,1.00
2019-03-10T07:04:47.476Z,1.02
2019-03-10T07:06:00.694Z,0.82
2019-03-10T07:07:13.912Z,1.07
2019-03-10T07:08:27.146Z,0.82
2019-03-10T07:09:40.366Z,0.82
2019-03-10T07:10:53.581Z,0.98
2019-03-10T07:12:06.798Z,0.78
2019-03-10T07:13:20.021Z,0.60
2019-03-10T07:14:33.241Z,0.70
2019-03-10T07:15:46.468Z,0.70
2019-03-10T07:16:59.689Z,0.70
2019-03-10T07:18:12.906Z,0.93
2019-03-10T07:19:26.128Z,0.50
2019-03-10T07:20:39.353Z,0.60
2019-03-10T07:21:52.577Z,0.72
2019-03-10T07:23:07.451Z,0.80
2019-03-10T07:24:20.697Z,0.70
2019-03-10T07:25:33.926Z,0.82
2019-03-10T07:26:47.145Z,0.78
2019-03-10T07:28:17.127Z,0.78
2019-03-10T07:29:32.007Z,0.55
2019-03-10T07:30:46.883Z,0.70
2019-03-10T07:32:10.757Z,0.80
2019-03-10T07:33:43.725Z,0.60
2019-03-10T07:34:58.816Z,0.65
2019-03-10T07:36:19.429Z,0.60
2019-03-10T07:37:36.808Z,0.70
2019-03-10T07:39:03.727Z,0.42
2019-03-10T07:40:24.314Z,0.70
2019-03-10T07:41:47.981Z,0.50
2019-03-10T07:43:17.698Z,0.50
2019-03-10T07:44:35.493Z,0.47
2019-03-10T07:46:05.208Z,0.40
2019-03-10T07:47:20.086Z,0.60
2019-03-10T07:48:37.701Z,0.60
2019-03-10T07:49:56.724Z,0.70
2019-03-10T07:51:11.606Z,0.57
2019-03-10T07:52:29.433Z,0.53
2019-03-10T07:53:44.285Z,0.70
2019-03-10T07:55:05.201Z,0.60
2019-03-10T07:56:28.864Z,0.75
2019-03-10T07:57:46.677Z,0.60
2019-03-10T07:59:10.481Z,0.40
2019-03-10T08:00:33.813Z,0.50
2019-03-10T08:02:00.783Z,0.47
2019-03-10T08:03:21.038Z,0.33
2019-03-10T08:04:53.984Z,0.23
2019-03-10T08:06:08.846Z,0.30
2019-03-10T08:07:38.424Z,0.28
2019-03-10T08:08:53.285Z,0.20
2019-03-10T08:10:13.037Z,0.40
2019-03-10T08:11:27.913Z,0.65
2019-03-10T08:12:51.871Z,0.30
2019-03-10T08:14:09.696Z,0.50
2019-03-10T08:15:30.297Z,0.13
2019-03-10T08:16:50.868Z,0.40
2019-03-10T08:18:21.962Z,0.50
2019-03-10T08:19:51.941Z,0.50
2019-03-10T08:21:23.065Z,0.40
2019-03-10T08:22:37.940Z,0.20
2019-03-10T08:24:01.906Z,0.33
2019-03-10T08:25:31.889Z,0.70
2019-03-10T08:26:49.469Z,0.30
2019-03-10T08:28:20.420Z,0.40
2019-03-10T08:29:38.321Z,0.20
2019-03-10T08:30:53.180Z,0.40
2019-03-10T08:32:14.010Z,0.40
2019-03-10T08:33:34.919Z,0.37
2019-03-10T08:34:49.812Z,0.33
2019-03-10T08:36:04.676Z,0.30
2019-03-10T08:37:19.534Z,0.30
2019-03-10T08:38:50.378Z,0.42
2019-03-10T08:40:23.409Z,0.40
2019-03-10T08:41:50.424Z,0.35
2019-03-10T08:43:07.972Z,0.30
2019-03-10T08:44:22.840Z,0.40
2019-03-10T08:45:49.788Z,0.30
2019-03-10T08:47:06.049Z,0.40
2019-03-10T08:48:30.640Z,0.30
2019-03-10T08:49:45.732Z,0.23
2019-03-10T08:51:00.661Z,0.10
2019-03-10T08:52:18.229Z,0.30
2019-03-10T08:53:51.219Z,0.28
2019-03-10T08:55:16.890Z,0.40
2019-03-10T08:56:35.706Z,0.30
2019-03-10T08:57:50.596Z,0.40
2019-03-10T08:59:05.532Z,0.30
2019-03-10T09:00:26.229Z,0.40
2019-03-10T09:01:41.114Z,0.60
2019-03-10T09:03:04.481Z,0.47
2019-03-10T09:04:35.433Z,0.33
2019-03-10T09:05:59.407Z,0.45
2019-03-10T09:07:17.248Z,0.35
2019-03-10T09:08:41.717Z,0.40
2019-03-10T09:09:59.537Z,0.37
2019-03-10T09:11:23.439Z,0.30
2019-03-10T09:12:38.319Z,0.50
2019-03-10T09:13:53.187Z,0.60
2019-03-10T09:15:14.597Z,0.55
2019-03-10T09:16:41.501Z,0.50
2019-03-10T09:18:11.181Z,0.60
2019-03-10T09:19:26.046Z,0.60
2019-03-10T09:20:43.427Z,0.40
2019-03-10T09:22:07.423Z,0.60
2019-03-10T09:23:30.869Z,0.45
2019-03-10T09:25:01.721Z,0.30
2019-03-10T09:26:16.664Z,0.50
2019-03-10T09:27:34.519Z,0.47
2019-03-10T09:29:07.500Z,0.33
2019-03-10T09:30:34.351Z,0.47
2019-03-10T09:31:52.633Z,0.60
2019-03-10T09:33:07.502Z,0.53
2019-03-10T09:34:38.130Z,0.50
2019-03-10T09:36:10.785Z,0.40
2019-03-10T09:37:31.320Z,0.42
2019-03-10T09:38:49.402Z,0.50
2019-03-10T09:40:18.939Z,0.40
2019-03-10T09:41:42.526Z,0.53
2019-03-10T09:43:03.994Z,0.42
2019-03-10T09:44:18.856Z,0.40
2019-03-10T09:45:33.732Z,0.55
2019-03-10T09:47:06.265Z,0.30
2019-03-10T09:48:37.922Z,0.50
2019-03-10T09:49:55.629Z,0.40
2019-03-10T09:51:12.961Z,0.40
2019-03-10T09:52:44.217Z,0.50
2019-03-10T09:54:07.592Z,0.50
2019-03-10T09:55:34.138Z,0.40
2019-03-10T09:56:55.823Z,0.20
2019-03-10T09:58:14.204Z,0.40
2019-03-10T09:59:30.101Z,0.40
2019-03-10T10:00:50.910Z,0.40
2019-03-10T10:02:05.777Z,0.45
2019-03-10T10:03:20.641Z,0.42
2019-03-10T10:04:41.483Z,0.30
2019-03-10T10:06:10.507Z,0.45
2019-03-10T10:07:39.657Z,0.37
2019-03-10T10:09:00.365Z,0.40
2019-03-10T10:10:24.038Z,0.40
2019-03-10T10:11:38.918Z,0.45
2019-03-10T10:12:59.888Z,0.50
2019-03-10T10:14:20.177Z,0.50
2019-03-10T10:15:35.049Z,0.40
2019-03-10T10:17:04.995Z,0.50
2019-03-10T10:18:33.133Z,0.62
2019-03-10T10:19:59.114Z,0.50
2019-03-10T10:21:19.937Z,0.40
2019-03-10T10:22:37.484Z,0.45
2019-03-10T10:24:10.421Z,0.28
2019-03-10T10:25:40.344Z,0.40
2019-03-10T10:27:00.949Z,0.60
2019-03-10T10:28:30.882Z,0.53
2019-03-10T10:29:45.746Z,0.45
2019-03-10T10:31:01.625Z,0.60
2019-03-10T10:32:25.082Z,0.72
2019-03-10T10:33:54.721Z,0.57
2019-03-10T10:35:23.134Z,0.60
2019-03-10T10:36:40.794Z,0.60
2019-03-10T10:37:58.317Z,0.60
2019-03-10T10:39:16.125Z,0.65
2019-03-10T10:40:30.984Z,0.75
2019-03-10T10:41:48.817Z,0.55
2019-03-10T10:43:15.945Z,0.70
2019-03-10T10:44:30.845Z,0.70
2019-03-10T10:45:48.387Z,0.78
2019-03-10T10:47:19.792Z,0.88
2019-03-10T10:48:34.642Z,0.57
2019-03-10T10:49:52.441Z,0.50
2019-03-10T10:51:07.298Z,0.90
2019-03-10T10:52:22.168Z,0.70
2019-03-10T10:53:40.089Z,0.70
2019-03-10T10:55:13.315Z,0.60
2019-03-10T10:56:34.128Z,0.65
2019-03-10T10:58:05.557Z,0.70
2019-03-10T10:59:23.010Z,0.37
2019-03-10T11:00:43.818Z,1.00
2019-03-10T11:02:01.468Z,1.10
2019-03-10T11:03:32.171Z,0.70
2019-03-10T11:04:56.202Z,0.50
2019-03-10T11:06:20.049Z,0.70
2019-03-10T11:07:51.174Z,0.80
2019-03-10T11:09:10.192Z,0.50
2019-03-10T11:10:37.153Z,0.90
2019-03-10T11:11:54.860Z,0.65
2019-03-10T11:13:26.174Z,0.60
2019-03-10T11:14:56.168Z,0.65
2019-03-10T11:16:27.124Z,0.85
2019-03-10T11:17:44.941Z,0.60
2019-03-10T11:18:59.817Z,0.50
2019-03-10T11:20:17.644Z,0.68
2019-03-10T11:21:38.360Z,0.60
2019-03-10T11:22:53.308Z,0.93
2019-03-10T11:24:08.173Z,0.90
2019-03-10T11:25:23.755Z,0.57
2019-03-10T11:26:56.464Z,0.60
2019-03-10T11:28:29.221Z,0.70
2019-03-10T11:29:46.990Z,0.82
2019-03-10T11:31:04.529Z,0.72
2019-03-10T11:32:34.260Z,0.78
2019-03-10T11:33:49.125Z,1.02
2019-03-10T11:35:06.723Z,0.53
2019-03-10T11:36:37.671Z,0.62
2019-03-10T11:37:54.938Z,0.65
2019-03-10T11:39:09.817Z,0.80
2019-03-10T11:40:27.135Z,0.60
2019-03-10T11:41:50.738Z,0.68
2019-03-10T11:43:08.638Z,0.68
2019-03-10T11:44:26.151Z,0.78
2019-03-10T11:45:57.230Z,0.65
2019-03-10T11:47:12.095Z,0.85
2019-03-10T11:48:32.914Z,0.90
2019-03-10T11:49:50.752Z,0.70
2019-03-10T11:51:08.581Z,0.50
2019-03-10T11:52:35.283Z,0.60
2019-03-10T11:53:50.166Z,0.88
2019-03-10T11:55:11.238Z,0.50
2019-03-10T11:56:30.173Z,0.50
2019-03-10T11:57:45.040Z,0.85
2019-03-10T11:59:02.950Z,0.57
2019-03-10T12:00:36.673Z,0.50
2019-03-10T12:02:15.553Z,0.72
2019-03-10T12:03:32.086Z,0.70
2019-03-10T12:04:46.970Z,0.57
2019-03-10T12:06:01.849Z,0.65
2019-03-10T12:07:25.490Z,0.50
2019-03-10T12:08:46.154Z,0.50
2019-03-10T12:09:59.403Z,1.00
2019-03-10T12:11:12.630Z,0.53
2019-03-10T12:12:26.098Z,0.93
2019-03-10T12:13:39.329Z,0.93
2019-03-10T12:14:52.553Z,0.78
2019-03-10T12:16:05.792Z,1.00
2019-03-10T12:17:19.013Z,0.80
2019-03-10T12:18:32.242Z,0.70
2019-03-10T12:19:45.470Z,0.57
2019-03-10T12:20:58.730Z,0.57
2019-03-10T12:22:11.969Z,0.45
2019-03-10T12:23:25.266Z,0.70
2019-03-10T12:24:38.487Z,0.65
2019-03-10T12:25:51.709Z,0.35
2019-03-10T12:27:04.962Z,0.70
2019-03-10T12:28:18.189Z,0.57
2019-03-10T12:29:33.550Z,0.57
2019-03-10T12:30:46.785Z,0.42
2019-03-10T12:32:00.023Z,0.35
2019-03-10T12:33:14.506Z,1.02
2019-03-10T12:34:27.737Z,0.45
2019-03-10T12:35:40.973Z,0.40
2019-03-10T12:36:56.538Z,0.60
2019-03-10T12:38:12.628Z,0.90
2019-03-10T12:39:26.171Z,0.60
2019-03-10T12:40:39.393Z,0.40
2019-03-10T12:41:58.571Z,0.37
2019-03-10T12:43:07.584Z,0.50
2019-03-10T12:44:20.801Z,0.40
2019-03-10T12:45:34.029Z,0.40
2019-03-10T12:46:47.271Z,0.55
2019-03-10T12:48:00.529Z,0.60
2019-03-10T12:49:13.749Z,0.50
2019-03-10T12:50:26.969Z,0.45
2019-03-10T12:51:40.186Z,0.57
2019-03-10T12:52:53.745Z,0.47
2019-03-10T12:54:07.250Z,0.40
2019-03-10T12:55:20.478Z,0.42
2019-03-10T12:56:33.712Z,0.50
2019-03-10T12:57:46.959Z,0.40
2019-03-10T12:59:00.173Z,0.47
2019-03-10T13:00:18.220Z,0.70
2019-03-10T13:01:31.522Z,0.70
2019-03-10T13:02:45.813Z,0.47
2019-03-10T13:03:59.405Z,1.00
2019-03-10T13:05:12.804Z,0.53
2019-03-10T13:06:26.039Z,0.40
2019-03-10T13:07:39.271Z,0.40
2019-03-10T13:08:52.499Z,0.60
2019-03-10T13:10:05.751Z,0.82
2019-03-10T13:11:18.965Z,0.55
2019-03-10T13:12:33.826Z,0.25
2019-03-10T13:13:47.065Z,0.57
2019-03-10T13:15:00.510Z,0.40
2019-03-10T13:16:15.305Z,0.40
2019-03-10T13:17:28.512Z,0.53
2019-03-10T13:18:42.746Z,0.30
2019-03-10T13:19:56.134Z,0.50
2019-03-10T13:21:09.365Z,0.53
2019-03-10T13:22:22.593Z,0.57
2019-03-10T13:23:35.828Z,0.25
2019-03-10T13:24:49.057Z,0.33
2019-03-10T13:26:02.301Z,0.30
2019-03-10T13:27:15.958Z,0.50
2019-03-10T13:28:29.953Z,0.30
2019-03-10T13:29:43.418Z,0.40
2019-03-10T13:30:56.651Z,0.53
2019-03-10T13:32:09.882Z,0.33
2019-03-10T13:33:23.588Z,0.50
2019-03-10T13:34:36.815Z,0.55
2019-03-10T13:35:52.818Z,0.28
2019-03-10T13:37:06.067Z,0.65
2019-03-10T13:38:19.295Z,0.62
2019-03-10T13:39:32.525Z,0.53
2019-03-10T13:40:45.749Z,0.50
2019-03-10T13:41:59.180Z,0.50
2019-03-10T13:43:12.425Z,0.33
2019-03-10T13:44:25.654Z,0.62
2019-03-10T13:45:38.878Z,0.35
2019-03-10T13:46:52.129Z,0.37
2019-03-10T13:48:07.034Z,0.45
2019-03-10T13:49:20.279Z,0.60
2019-03-10T13:50:33.743Z,0.20
2019-03-10T13:51:46.993Z,0.40
2019-03-10T13:53:00.228Z,0.50
2019-03-10T13:54:13.465Z,0.30
2019-03-10T13:55:26.686Z,0.42
2019-03-10T13:56:39.912Z,0.33
2019-03-10T13:57:53.142Z,0.30
2019-03-10T13:59:06.385Z,0.72
2019-03-10T14:00:26.715Z,0.25
2019-03-10T14:01:40.746Z,0.50
2019-03-10T14:02:54.030Z,0.30
2019-03-10T14:04:07.274Z,0.40
2019-03-10T14:05:21.231Z,0.53
2019-03-10T14:06:34.521Z,0.47
2019-03-10T14:07:48.015Z,0.33
2019-03-10T14:09:04.449Z,0.33
2019-03-10T14:10:17.668Z,0.40
2019-03-10T14:11:30.898Z,0.50
2019-03-10T14:12:47.070Z,0.88
2019-03-10T14:14:01.067Z,0.53
2019-03-10T14:15:33.875Z,0.50
2019-03-10T14:16:48.452Z,0.90
2019-03-10T14:18:04.750Z,0.40
2019-03-10T14:19:19.836Z,0.47
2019-03-10T14:20:37.295Z,0.80
2019-03-10T14:22:09.131Z,0.60
2019-03-10T14:24:37.406Z,0.40
2019-03-10T14:27:35.284Z,0.40
2019-03-10T14:28:53.889Z,0.60
2019-03-10T14:30:31.266Z,0.33
2019-03-10T14:31:53.331Z,0.30
2019-03-10T14:33:06.562Z,0.40
2019-03-10T14:34:31.211Z,0.28
2019-03-10T14:35:50.438Z,0.30
2019-03-10T14:37:06.570Z,0.60
2019-03-10T14:38:21.550Z,0.30
2019-03-10T14:41:10.061Z,0.42
2019-03-10T14:42:27.662Z,0.42
2019-03-10T14:43:47.064Z,0.65
2019-03-10T14:45:04.240Z,0.30
2019-03-10T14:46:45.644Z,0.28
2019-03-10T14:48:15.031Z,0.47
2019-03-10T14:49:36.156Z,0.78
2019-03-10T14:53:49.586Z,0.30
2019-03-10T14:55:08.762Z,0.67
2019-03-10T14:56:26.739Z,0.98
2019-03-10T14:59:19.941Z,0.50
2019-03-10T15:00:43.625Z,0.40
2019-03-10T15:02:00.286Z,0.40
2019-03-10T15:03:18.632Z,0.17
2019-03-10T15:04:34.689Z,0.33
2019-03-10T15:05:53.958Z,0.40
2019-03-10T15:07:14.409Z,0.30
2019-03-10T15:08:36.269Z,0.35
2019-03-10T15:11:43.731Z,0.30
2019-03-10T15:13:11.498Z,0.50
2019-03-10T15:14:24.746Z,0.40
2019-03-10T15:15:39.028Z,0.40
2019-03-10T15:17:18.342Z,0.30
2019-03-10T15:18:42.216Z,0.50
2019-03-10T15:20:03.984Z,0.40
2019-03-10T15:21:17.210Z,0.23
2019-03-10T15:24:22.170Z,0.20
2019-03-10T15:25:38.306Z,0.40
2019-03-10T15:27:02.861Z,0.50
2019-03-10T15:28:17.754Z,0.60
2019-03-10T15:29:36.644Z,0.40
2019-03-10T15:31:04.397Z,0.35
2019-03-10T15:32:29.917Z,0.53
2019-03-10T15:33:47.754Z,0.80
2019-03-10T15:35:04.211Z,0.42
2019-03-10T15:38:12.206Z,0.60
2019-03-10T15:43:06.053Z,0.40
2019-03-10T15:44:24.104Z,0.50
2019-03-10T15:45:49.673Z,0.50
2019-03-10T15:47:26.299Z,0.30
2019-03-10T15:52:04.370Z,0.42
2019-03-10T15:53:17.615Z,0.60
2019-03-10T15:54:41.426Z,0.28
2019-03-10T15:55:54.683Z,0.30
2019-03-10T15:57:07.909Z,0.40
2019-03-10T15:58:21.149Z,0.30
2019-03-10T15:59:34.416Z,0.40
2019-03-10T16:00:49.889Z,0.35
2019-03-10T16:02:04.986Z,0.28
2019-03-10T16:03:25.741Z,0.30
2019-03-10T16:04:38.966Z,0.23
2019-03-10T16:06:00.700Z,0.70
2019-03-10T16:07:20.307Z,0.50
2019-03-10T16:08:53.017Z,0.72
2019-03-10T16:10:20.622Z,0.40
2019-03-10T16:11:42.731Z,0.33
2019-03-10T16:12:57.553Z,1.42
2019-03-10T16:14:10.777Z,0.50
2019-03-10T16:15:28.199Z,0.70
2019-03-10T16:16:44.786Z,0.40
2019-03-10T16:18:08.054Z,0.60
2019-03-10T16:19:36.441Z,0.62
2019-03-10T16:21:05.963Z,0.65
2019-03-10T16:22:20.837Z,0.98
2019-03-10T16:23:37.421Z,0.60
2019-03-10T16:24:57.601Z,0.30
2019-03-10T16:26:14.169Z,0.72
2019-03-10T16:27:29.309Z,1.27
2019-03-10T16:28:43.271Z,0.78
2019-03-10T16:29:57.941Z,0.75
2019-03-10T16:31:11.182Z,0.50
2019-03-10T16:32:27.958Z,0.80
2019-03-10T16:33:42.414Z,0.47
2019-03-10T16:34:59.659Z,0.85
2019-03-10T16:36:13.133Z,0.45
2019-03-10T16:37:26.358Z,0.60
2019-03-10T16:38:39.604Z,0.40
2019-03-10T16:39:52.841Z,0.82
2019-03-10T16:41:07.798Z,1.32
2019-03-10T16:42:21.321Z,0.65
2019-03-10T16:43:34.566Z,0.88
2019-03-10T16:44:47.777Z,1.25
2019-03-10T16:46:02.338Z,0.70
2019-03-10T16:47:15.608Z,0.72
2019-03-10T16:48:28.866Z,0.68
2019-03-10T16:49:45.416Z,0.80
2019-03-10T16:51:16.454Z,0.75
2019-03-10T16:52:29.379Z,1.05
2019-03-10T16:53:45.153Z,0.70
2019-03-10T16:54:58.450Z,1.05
2019-03-10T16:56:12.538Z,1.12
2019-03-10T16:57:27.405Z,0.82
2019-03-10T16:58:43.304Z,0.60
2019-03-10T16:59:57.669Z,0.90
2019-03-10T17:01:14.718Z,0.85
2019-03-10T17:02:28.874Z,0.50
2019-03-10T17:03:43.828Z,1.00
2019-03-10T17:04:57.068Z,0.60
2019-03-10T17:06:13.859Z,0.90
2019-03-10T17:07:27.884Z,0.78
2019-03-10T17:08:54.760Z,0.90
2019-03-10T17:10:30.342Z,1.02
2019-03-10T17:11:45.925Z,0.68
2019-03-10T17:13:00.781Z,0.70
2019-03-10T17:14:15.655Z,1.50
2019-03-10T17:15:30.406Z,0.88
2019-03-10T17:16:45.248Z,0.70
2019-03-10T17:17:58.506Z,1.02
2019-03-10T17:19:18.451Z,0.60
2019-03-10T17:20:35.455Z,1.15
2019-03-10T17:22:03.241Z,1.00
2019-03-10T17:23:19.533Z,0.90
2019-03-10T17:24:34.734Z,0.85